KE4U-1 Weather Reports


Display with metric or nautical units.
time (UTC)temp
F
wind
direction
speed
MPH
gust
MPH
rain 1hr
in
rain 24hr
in
rain mn
in
humidity
%
barometer
mb
20210305202845 52 332 1.0 6.0 0.00 0.00 0.00 25 1009.3
20210305201411 53 328 1.0 8.0 0.00 0.00 0.00 25 1009.4
20210305200447 52 15 2.0 9.0 0.00 0.00 0.00 25 1009.5
20210305193454 53 314 3.0 11.0 0.00 0.00 0.00 23 1009.7
20210305192736 53 0 0.0 7.0 0.00 0.00 0.00 25 1009.8
20210305191056 52 351 2.0 8.0 0.00 0.00 0.00 25 1009.9
20210305183806 52 318 4.0 10.0 0.00 0.00 0.00 23 1010.4
20210305183121 52 6 2.0 10.0 0.00 0.00 0.00 25 1010.5
20210305182747 52 6 2.0 10.0 0.00 0.00 0.00 25 1010.5
20210305181357 52 351 2.0 6.0 0.00 0.00 0.00 26 1010.7
20210305180217 52 340 2.0 9.0 0.00 0.00 0.00 26 1010.9
20210305175413 52 343 3.0 12.0 0.00 0.00 0.00 25 1011.2
20210305173757 52 322 3.0 10.0 0.00 0.00 0.00 26 1011.3
20210305171735 51 311 2.0 7.0 0.00 0.00 0.00 28 1011.6
20210305170535 50 351 2.0 8.0 0.00 0.00 0.00 29 1011.7
20210305165859 49 62 1.0 7.0 0.00 0.00 0.00 28 1011.8
20210305164321 48 10 2.0 10.0 0.00 0.00 0.00 32 1011.8
20210305163632 48 290 1.0 9.0 0.00 0.00 0.00 34 1011.8
20210305161357 45 350 1.0 7.0 0.00 0.00 0.00 37 1012.1
20210305155544 44 323 5.0 11.0 0.00 0.00 0.00 42 1012.2
20210305153127 42 335 3.0 8.0 0.00 0.00 0.00 51 1012.4
20210305151720 42 11 3.0 6.0 0.00 0.00 0.00 52 1012.5
20210305150518 41 31 1.0 5.0 0.00 0.00 0.00 55 1012.3
20210305144812 40 29 1.0 6.0 0.00 0.00 0.00 58 1012.4
20210305143544 40 336 3.0 10.0 0.00 0.00 0.00 58 1012.4
20210305142726 39 50 1.0 6.0 0.00 0.00 0.00 61 1012.5
20210305141150 39 15 3.0 10.0 0.00 0.00 0.00 61 1012.6
20210305140232 38 347 2.0 8.0 0.00 0.00 0.00 63 1012.6
20210305134917 38 0 0.0 3.0 0.00 0.00 0.00 67 1012.5
20210305133547 37 0 0.0 4.0 0.00 0.00 0.00 69 1012.5
20210305131552 35 355 1.0 4.0 0.00 0.00 0.00 74 1012.4
20210305130512 33 355 1.0 3.0 0.00 0.00 0.00 79 1012.3
20210305125724 32 0 0.0 2.0 0.00 0.00 0.00 86 1012.1
20210305123946 31 0 0.0 0.0 0.00 0.00 0.00 87 1011.9
20210305123249 31 0 0.0 0.0 0.00 0.00 0.00 86 1011.8
20210305121546 31 0 0.0 0.0 0.00 0.00 0.00 86 1011.7
20210305120348 31 0 0.0 0.0 0.00 0.00 0.00 86 1011.3
20210305115801 30 0 0.0 0.0 0.00 0.00 0.00 87 1011.1
20210305113950 30 0 0.0 0.0 0.00 0.00 0.00 86 1011.1
20210305112937 30 0 0.0 0.0 0.00 0.00 0.00 86 1010.9
20210305111554 30 0 0.0 0.0 0.00 0.00 0.00 86 1010.8
20210305110349 31 0 0.0 0.0 0.00 0.00 0.00 85 1010.7
20210305105700 31 0 0.0 0.0 0.00 0.00 0.00 85 1010.5
20210305103947 31 0 0.0 0.0 0.00 0.00 0.00 84 1010.3
20210305102815 32 0 0.0 0.0 0.00 0.00 0.00 84 1010.1
20210305101555 32 0 0.0 0.0 0.00 0.00 0.00 84 1009.9
20210305100348 33 0 0.0 0.0 0.00 0.00 0.00 83 1009.8
20210305095812 33 0 0.0 0.0 0.00 0.00 0.00 83 1009.5
20210305095558 33 0 0.0 0.0 0.00 0.00 0.00 83 1009.5
20210305093953 33 0 0.0 0.0 0.00 0.00 0.00 82 1009.3
20210305092845 33 0 0.0 0.0 0.00 0.00 0.00 81 1009.2
20210305092837 33 0 0.0 0.0 0.00 0.00 0.00 81 1009.2
20210305092826 34 0 0.0 0.0 0.00 0.00 0.00 81 1008.8
20210305091547 34 0 0.0 0.0 0.00 0.00 0.00 81 1008.8
20210305090707 34 0 0.0 0.0 0.00 0.00 0.00 82 1008.6
20210305090347 34 0 0.0 0.0 0.00 0.00 0.00 82 1008.6
20210305085406 34 0 0.0 0.0 0.00 0.00 0.00 77 1008.5
20210305083947 35 0 0.0 0.0 0.00 0.00 0.00 78 1008.4
20210305083059 35 0 0.0 0.0 0.00 0.00 0.00 76 1008.3
20210305081546 35 0 0.0 0.0 0.00 0.00 0.00 76 1008.0
20210305080344 35 0 0.0 1.0 0.00 0.00 0.00 76 1008.0
20210305075829 35 0 0.0 2.0 0.00 0.00 0.00 78 1007.9
20210305073949 36 0 0.0 3.0 0.00 0.00 0.00 79 1007.9
20210305072837 36 0 0.0 1.0 0.00 0.00 0.00 77 1007.9
20210305071423 37 0 0.0 1.0 0.00 0.00 0.00 77 1007.7
20210305070224 37 0 0.0 1.0 0.00 0.00 0.00 75 1008.0
20210305065944 37 0 0.0 0.0 0.00 0.00 0.00 73 1007.9
20210305065215 37 0 0.0 0.0 0.00 0.00 0.00 73 1007.9
20210305063825 38 0 0.0 0.0 0.00 0.00 0.00 75 1007.9
20210305063108 38 0 0.0 0.0 0.00 0.00 0.00 72 1007.8
20210305063028 38 0 0.0 0.0 0.00 0.00 0.00 72 1007.8
20210305061421 38 0 0.0 0.0 0.00 0.00 0.00 71 1007.7
20210305060223 39 0 0.0 0.0 0.00 0.00 0.00 70 1007.4
20210305055626 40 0 0.0 0.0 0.00 0.00 0.00 72 1007.4
20210305055208 40 0 0.0 0.0 0.00 0.00 0.00 72 1007.4
20210305053824 40 0 0.0 1.0 0.00 0.00 0.00 69 1007.3
20210305052828 41 0 0.0 0.0 0.00 0.00 0.00 66 1007.3
20210305051420 41 0 0.0 1.0 0.00 0.00 0.00 66 1007.2
20210305050224 42 0 0.0 2.0 0.00 0.00 0.00 63 1007.0
20210305044231 42 0 0.0 1.0 0.00 0.00 0.00 59 1007.0
20210305043121 43 0 0.0 1.0 0.00 0.00 0.00 60 1006.9
20210305041845 43 0 0.0 1.0 0.00 0.00 0.00 58 1006.8
20210305040631 44 0 0.0 1.0 0.00 0.00 0.00 57 1006.6
20210305040050 44 0 0.0 1.0 0.00 0.00 0.00 59 1006.5
20210305034233 45 0 0.0 1.0 0.00 0.00 0.00 53 1006.5
20210305033042 44 0 0.0 2.0 0.00 0.00 0.00 54 1006.5
20210305031848 44 0 0.0 2.0 0.00 0.00 0.00 59 1006.4
20210305030634 44 0 0.0 1.0 0.00 0.00 0.00 58 1006.2
20210305025901 44 0 0.0 1.0 0.00 0.00 0.00 59 1006.2
20210305024232 45 0 0.0 1.0 0.00 0.00 0.00 61 1006.0
20210305023036 45 0 0.0 1.0 0.00 0.00 0.00 59 1005.8
20210305021918 45 0 0.0 1.0 0.00 0.00 0.00 55 1005.7
20210305020629 46 0 0.0 1.0 0.00 0.00 0.00 53 1005.6
20210305015845 47 0 0.0 0.0 0.00 0.00 0.00 56 1005.5
20210305014234 49 0 0.0 0.0 0.00 0.00 0.00 54 1005.4
20210305013124 49 0 0.0 1.0 0.00 0.00 0.00 50 1005.2
20210305012053 49 0 0.0 1.0 0.00 0.00 0.00 45 1004.9
20210305010907 50 0 0.0 2.0 0.00 0.00 0.00 44 1004.7
20210305010628 50 0 0.0 2.0 0.00 0.00 0.00 44 1004.7
20210305005812 51 0 0.0 1.0 0.00 0.00 0.00 46 1004.6
20210305004230 53 0 0.0 0.0 0.00 0.00 0.00 44 1004.6
20210305003103 54 0 0.0 0.0 0.00 0.00 0.00 40 1004.5
20210305001856 55 0 0.0 0.0 0.00 0.00 0.00 34 1004.4
20210305000735 56 0 0.0 2.0 0.00 0.00 0.00 33 1004.2
20210304235940 57 0 0.0 6.0 0.00 0.00 0.00 32 1004.0
20210304234228 57 3 1.0 5.0 0.00 0.00 0.00 33 1004.0
20210304233213 58 0 0.0 1.0 0.00 0.00 0.00 32 1003.8
20210304232040 59 0 0.0 4.0 0.00 0.00 0.00 31 1003.6
20210304230631 60 0 0.0 3.0 0.00 0.00 0.00 29 1003.3
20210304224029 62 4 1.0 11.0 0.00 0.00 0.00 26 1003.1
20210304220249 63 16 2.0 7.0 0.00 0.00 0.00 25 1002.8
20210304213816 65 358 3.0 14.0 0.00 0.00 0.00 23 1002.7
20210304212905 65 319 4.0 15.0 0.00 0.00 0.00 25 1002.7
20210304211412 65 323 1.0 12.0 0.00 0.00 0.00 25 1003.0
20210304210220 65 7 4.0 14.0 0.00 0.00 0.00 23 1002.8
20210304204714 66 323 4.0 13.0 0.00 0.00 0.00 23 1003.1
20210304203644 66 320 5.0 12.0 0.00 0.00 0.00 22 1003.1